Time,TemperatureF,DewpointF,PressureIn,WindDirection,WindDirectionDegrees,WindSpeedMPH,WindSpeedGustMPH,Humidity,HourlyPrecipIn,Conditions,Clouds,dailyrainin,SoftwareType,DateUTC
2013-12-01 00:04:00,44.3,26.9,26.05,North,0,0.0,0.0,50,0.00,,---,0.00,VWS V12.07,2013-12-01 07:04:00,
2013-12-01 00:05:00,44.3,26.9,26.05,North,0,0.0,0.0,50,0.00,,---,0.00,VWS V12.07,2013-12-01 07:05:00,
2013-12-01 00:10:00,44.1,26.7,26.05,North,0,0.0,0.0,50,0.00,,---,0.00,VWS V12.07,2013-12-01 07:10:00,
2013-12-01 00:19:00,43.9,26.5,26.05,North,357,0.0,0.0,50,0.00,,---,0.00,VWS V12.07,2013-12-01 07:19:00,
2013-12-01 00:20:00,43.9,26.5,26.05,North,0,0.0,0.0,50,0.00,,---,0.00,VWS V12.07,2013-12-01 07:20:00,
2013-12-01 00:25:00,43.8,26.4,26.05,North,0,0.0,0.0,50,0.00,,---,0.00,VWS V12.07,2013-12-01 07:25:00,
2013-12-01 00:34:00,43.8,26.4,26.05,North,357,0.0,0.0,50,0.00,,---,0.00,VWS V12.07,2013-12-01 07:34:00,
2013-12-01 00:35:00,43.8,26.4,26.05,North,0,0.0,0.0,50,0.00,,---,0.00,VWS V12.07,2013-12-01 07:35:00,
2013-12-01 00:40:00,43.6,26.7,26.05,North,357,0.0,0.0,51,0.00,,---,0.00,VWS V12.07,2013-12-01 07:40:00,
2013-12-01 00:49:00,43.6,26.7,26.05,North,0,0.0,0.0,51,0.00,,---,0.00,VWS V12.07,2013-12-01 07:49:00,
2013-12-01 00:55:00,43.6,26.7,26.05,North,0,0.0,0.0,51,0.00,,---,0.00,VWS V12.07,2013-12-01 07:55:00,
2013-12-01 01:04:00,43.6,26.7,26.05,North,0,0.0,0.0,51,0.00,,---,0.00,VWS V12.07,2013-12-01 08:04:00,
2013-12-01 01:10:00,43.6,26.7,26.05,North,0,0.0,0.0,51,0.00,,---,0.00,VWS V12.07,2013-12-01 08:10:00,
2013-12-01 01:19:00,43.6,27.1,26.05,North,357,0.0,0.0,52,0.00,,---,0.00,VWS V12.07,2013-12-01 08:19:00,
2013-12-01 01:20:00,43.6,27.1,26.05,North,0,0.0,0.0,52,0.00,,---,0.00,VWS V12.07,2013-12-01 08:20:00,
2013-12-01 01:25:00,43.4,27.0,26.05,North,0,0.0,0.0,52,0.00,,---,0.00,VWS V12.07,2013-12-01 08:25:00,
2013-12-01 01:34:00,43.4,27.0,26.05,North,0,0.0,0.0,52,0.00,,---,0.00,VWS V12.07,2013-12-01 08:34:00,
2013-12-01 01:35:00,43.4,27.0,26.05,North,357,0.0,0.0,52,0.00,,---,0.00,VWS V12.07,2013-12-01 08:35:00,
2013-12-01 01:40:00,43.4,27.0,26.05,North,0,0.0,0.0,52,0.00,,---,0.00,VWS V12.07,2013-12-01 08:40:00,
2013-12-01 01:49:00,43.4,27.4,26.05,North,357,0.0,0.0,53,0.00,,---,0.00,VWS V12.07,2013-12-01 08:49:00,
2013-12-01 01:50:00,43.4,27.4,26.05,North,0,0.0,0.0,53,0.00,,---,0.00,VWS V12.07,2013-12-01 08:50:00,
2013-12-01 01:55:00,43.4,27.9,26.05,North,1,0.0,0.0,54,0.00,,---,0.00,VWS V12.07,2013-12-01 08:55:00,
2013-12-01 02:04:00,43.4,27.9,26.05,North,357,0.0,0.0,54,0.00,,---,0.00,VWS V12.07,2013-12-01 09:04:00,
2013-12-01 02:05:00,43.6,28.0,26.05,North,357,0.0,0.0,54,0.00,,---,0.00,VWS V12.07,2013-12-01 09:05:00,
2013-12-01 02:10:00,43.6,28.0,26.05,North,0,0.0,0.0,54,0.00,,---,0.00,VWS V12.07,2013-12-01 09:10:00,
2013-12-01 02:19:00,43.9,28.4,26.05,North,0,0.0,0.0,54,0.00,,---,0.00,VWS V12.07,2013-12-01 09:19:00,
2013-12-01 02:20:00,43.9,28.4,26.05,North,357,0.0,0.0,54,0.00,,---,0.00,VWS V12.07,2013-12-01 09:20:00,
2013-12-01 02:25:00,44.1,28.5,26.05,North,357,0.0,0.0,54,0.00,,---,0.00,VWS V12.07,2013-12-01 09:25:00,
2013-12-01 02:34:00,43.9,28.4,26.02,North,357,0.0,0.0,54,0.00,,---,0.00,VWS V12.07,2013-12-01 09:34:00,
2013-12-01 02:35:00,43.9,28.4,26.02,North,0,0.0,0.0,54,0.00,,---,0.00,VWS V12.07,2013-12-01 09:35:00,
2013-12-01 02:40:00,43.4,27.4,26.02,North,1,0.0,0.0,53,0.00,,---,0.00,VWS V12.07,2013-12-01 09:40:00,
2013-12-01 02:49:00,43.0,27.5,26.02,North,0,0.0,0.0,54,0.00,,---,0.00,VWS V12.07,2013-12-01 09:49:00,
2013-12-01 02:55:00,43.2,28.2,26.02,North,357,0.0,0.0,55,0.00,,---,0.00,VWS V12.07,2013-12-01 09:55:00,
2013-12-01 03:03:00,43.4,29.6,26.02,North,0,0.0,0.0,58,0.00,,---,0.00,VWS V12.07,2013-12-01 10:03:00,
2013-12-01 03:05:00,43.4,29.6,26.02,North,357,0.0,0.0,58,0.00,,---,0.00,VWS V12.07,2013-12-01 10:05:00,
2013-12-01 03:10:00,43.6,29.4,26.02,North,357,0.0,0.0,57,0.00,,---,0.00,VWS V12.07,2013-12-01 10:10:00,
2013-12-01 03:19:00,43.9,30.1,26.02,North,0,0.0,3.1,58,0.00,,---,0.00,VWS V12.07,2013-12-01 10:19:00,
2013-12-01 03:20:00,43.9,30.1,26.02,North,0,0.0,0.0,58,0.00,,---,0.00,VWS V12.07,2013-12-01 10:20:00,
2013-12-01 03:25:00,44.1,30.3,26.02,North,357,0.0,3.6,58,0.00,,---,0.00,VWS V12.07,2013-12-01 10:25:00,
2013-12-01 03:34:00,44.3,30.5,26.02,North,0,0.0,3.6,58,0.00,,---,0.00,VWS V12.07,2013-12-01 10:34:00,
2013-12-01 03:35:00,44.3,30.5,26.02,North,357,0.0,3.6,58,0.00,,---,0.00,VWS V12.07,2013-12-01 10:35:00,
2013-12-01 03:40:00,44.3,30.0,26.02,North,0,0.0,0.0,57,0.00,,---,0.00,VWS V12.07,2013-12-01 10:40:00,
2013-12-01 03:49:00,44.5,30.2,26.02,North,0,0.0,0.0,57,0.00,,---,0.00,VWS V12.07,2013-12-01 10:49:00,
2013-12-01 03:50:00,44.5,30.2,26.02,North,0,0.0,0.0,57,0.00,,---,0.00,VWS V12.07,2013-12-01 10:50:00,
2013-12-01 03:55:00,44.5,30.2,26.02,North,357,0.0,0.0,57,0.00,,---,0.00,VWS V12.07,2013-12-01 10:55:00,
2013-12-01 04:04:00,44.5,30.2,26.02,North,0,3.6,4.0,57,0.00,,---,0.00,VWS V12.07,2013-12-01 11:04:00,
2013-12-01 04:05:00,44.5,30.2,26.02,North,357,2.7,4.0,57,0.00,,---,0.00,VWS V12.07,2013-12-01 11:05:00,
2013-12-01 04:10:00,44.7,30.4,26.02,North,0,2.7,4.9,57,0.00,,---,0.00,VWS V12.07,2013-12-01 11:10:00,
2013-12-01 04:19:00,44.8,30.5,25.99,North,350,6.3,6.3,57,0.00,,---,0.00,VWS V12.07,2013-12-01 11:19:00,
2013-12-01 04:20:00,44.8,30.5,25.99,North,350,3.6,7.6,57,0.00,,---,0.00,VWS V12.07,2013-12-01 11:20:00,
2013-12-01 04:25:00,45.2,30.5,25.99,North,353,5.8,7.6,56,0.00,,---,0.00,VWS V12.07,2013-12-01 11:25:00,
2013-12-01 04:34:00,46.1,29.9,26.02,NNW,343,7.2,10.5,53,0.00,,---,0.00,VWS V12.07,2013-12-01 11:34:00,
2013-12-01 04:35:00,46.1,29.5,26.02,NNW,343,5.8,10.5,52,0.00,,---,0.00,VWS V12.07,2013-12-01 11:35:00,
2013-12-01 04:40:00,46.3,29.6,26.02,NNW,341,8.3,8.3,52,0.00,,---,0.00,VWS V12.07,2013-12-01 11:40:00,
2013-12-01 04:49:00,46.3,29.6,26.02,NNW,337,7.6,8.7,52,0.00,,---,0.00,VWS V12.07,2013-12-01 11:49:00,
2013-12-01 04:50:00,46.3,29.6,26.02,NNW,337,5.4,8.7,52,0.00,,---,0.00,VWS V12.07,2013-12-01 11:50:00,
2013-12-01 04:55:00,46.3,29.6,26.02,NNW,336,5.8,8.7,52,0.00,,---,0.00,VWS V12.07,2013-12-01 11:55:00,
2013-12-01 05:04:00,46.5,29.3,26.02,NNW,336,5.4,6.3,51,0.00,,---,0.00,VWS V12.07,2013-12-01 12:04:00,
2013-12-01 05:05:00,46.5,29.3,26.02,NNW,336,4.0,6.3,51,0.00,,---,0.00,VWS V12.07,2013-12-01 12:05:00,
2013-12-01 05:10:00,46.5,29.3,26.02,NNW,336,4.0,6.3,51,0.00,,---,0.00,VWS V12.07,2013-12-01 12:10:00,
2013-12-01 05:19:00,46.5,29.3,26.02,NNW,336,2.7,6.3,51,0.00,,---,0.00,VWS V12.07,2013-12-01 12:19:00,
2013-12-01 05:20:00,46.5,29.3,26.02,NNW,336,3.6,6.3,51,0.00,,---,0.00,VWS V12.07,2013-12-01 12:20:00,
2013-12-01 05:25:00,46.5,29.3,26.02,NNW,336,0.0,4.0,51,0.00,,---,0.00,VWS V12.07,2013-12-01 12:25:00,
2013-12-01 05:34:00,46.5,29.3,26.02,NNW,336,2.7,5.4,51,0.00,,---,0.00,VWS V12.07,2013-12-01 12:34:00,
2013-12-01 05:35:00,46.5,29.3,26.02,NNW,336,3.6,5.4,51,0.00,,---,0.00,VWS V12.07,2013-12-01 12:35:00,
2013-12-01 05:40:00,46.3,29.2,26.02,NNW,336,0.0,5.4,51,0.00,,---,0.00,VWS V12.07,2013-12-01 12:40:00,
2013-12-01 05:49:00,45.9,28.8,26.02,NNW,336,0.0,0.0,51,0.00,,---,0.00,VWS V12.07,2013-12-01 12:49:00,
2013-12-01 05:50:00,45.7,28.7,26.02,NNW,336,0.0,0.0,51,0.00,,---,0.00,VWS V12.07,2013-12-01 12:50:00,
2013-12-01 05:55:00,45.6,28.5,26.02,NNW,336,0.0,0.0,51,0.00,,---,0.00,VWS V12.07,2013-12-01 12:55:00,
2013-12-01 06:04:00,45.2,28.6,26.05,NNW,336,0.0,0.0,52,0.00,,---,0.00,VWS V12.07,2013-12-01 13:04:00,
2013-12-01 06:05:00,45.2,28.6,26.05,NNW,336,0.0,0.0,52,0.00,,---,0.00,VWS V12.07,2013-12-01 13:05:00,
2013-12-01 06:10:00,45.0,29.4,26.05,NNW,336,0.0,0.0,54,0.00,,---,0.00,VWS V12.07,2013-12-01 13:10:00,
2013-12-01 06:19:00,44.8,29.2,26.05,NNW,336,0.0,0.0,54,0.00,,---,0.00,VWS V12.07,2013-12-01 13:19:00,
2013-12-01 06:20:00,44.8,29.2,26.05,NNW,336,0.0,0.0,54,0.00,,---,0.00,VWS V12.07,2013-12-01 13:20:00,
2013-12-01 06:25:00,44.8,29.2,26.05,NNW,336,0.0,0.0,54,0.00,,---,0.00,VWS V12.07,2013-12-01 13:25:00,
2013-12-01 06:34:00,44.8,29.2,26.05,NNW,336,3.1,3.6,54,0.00,,---,0.00,VWS V12.07,2013-12-01 13:34:00,
2013-12-01 06:35:00,44.8,29.7,26.05,NNW,336,3.6,4.0,55,0.00,,---,0.00,VWS V12.07,2013-12-01 13:35:00,
2013-12-01 06:40:00,44.8,29.7,26.05,NNW,336,3.6,5.8,55,0.00,,---,0.00,VWS V12.07,2013-12-01 13:40:00,
2013-12-01 06:49:00,45.0,30.7,26.05,NNW,336,3.1,5.8,57,0.00,,---,0.00,VWS V12.07,2013-12-01 13:49:00,
2013-12-01 06:50:00,45.0,30.7,26.05,NNW,336,0.0,5.8,57,0.00,,---,0.00,VWS V12.07,2013-12-01 13:50:00,
2013-12-01 06:55:00,45.0,31.1,26.05,NNW,336,2.7,5.8,58,0.00,,---,0.00,VWS V12.07,2013-12-01 13:55:00,
2013-12-01 07:04:00,44.8,31.0,26.05,NNW,336,0.0,4.9,58,0.00,,---,0.00,VWS V12.07,2013-12-01 14:04:00,
2013-12-01 07:05:00,44.8,31.0,26.05,NNW,336,0.0,4.9,58,0.00,,---,0.00,VWS V12.07,2013-12-01 14:05:00,
2013-12-01 07:10:00,44.8,31.4,26.05,NNW,336,0.0,4.9,59,0.00,,---,0.00,VWS V12.07,2013-12-01 14:10:00,
2013-12-01 07:19:00,44.7,31.6,26.05,NNW,336,0.0,4.9,60,0.00,,---,0.00,VWS V12.07,2013-12-01 14:19:00,
2013-12-01 07:20:00,44.7,31.6,26.05,NNW,336,0.0,4.9,60,0.00,,---,0.00,VWS V12.07,2013-12-01 14:20:00,
2013-12-01 07:25:00,44.7,31.6,26.05,NNW,336,0.0,0.0,60,0.00,,---,0.00,VWS V12.07,2013-12-01 14:25:00,
2013-12-01 07:34:00,44.7,31.6,26.07,NNW,336,0.0,0.0,60,0.00,,---,0.00,VWS V12.07,2013-12-01 14:34:00,
2013-12-01 07:35:00,44.7,31.6,26.07,NNW,336,0.0,0.0,60,0.00,,---,0.00,VWS V12.07,2013-12-01 14:35:00,
2013-12-01 07:40:00,44.7,32.0,26.07,NNW,336,0.0,0.0,61,0.00,,---,0.00,VWS V12.07,2013-12-01 14:40:00,
2013-12-01 07:49:00,44.8,31.8,26.07,NNW,336,3.1,5.4,60,0.00,,---,0.00,VWS V12.07,2013-12-01 14:49:00,
2013-12-01 07:50:00,45.0,32.0,26.07,NNW,336,3.1,5.4,60,0.00,,---,0.00,VWS V12.07,2013-12-01 14:50:00,
2013-12-01 07:55:00,45.2,31.7,26.07,NNW,336,0.0,5.4,59,0.00,,---,0.00,VWS V12.07,2013-12-01 14:55:00,
2013-12-01 08:04:00,45.4,31.0,26.07,NNW,336,5.8,5.8,57,0.00,,---,0.00,VWS V12.07,2013-12-01 15:04:00,
2013-12-01 08:05:00,45.6,31.2,26.07,NNW,336,5.4,6.3,57,0.00,,---,0.00,VWS V12.07,2013-12-01 15:05:00,
2013-12-01 08:10:00,45.7,31.0,26.07,NNW,338,4.0,8.1,56,0.00,,---,0.00,VWS V12.07,2013-12-01 15:10:00,
2013-12-01 08:19:00,45.9,30.2,26.07,NNW,338,3.1,8.1,54,0.00,,---,0.00,VWS V12.07,2013-12-01 15:19:00,
2013-12-01 08:20:00,45.9,30.2,26.07,NNW,338,4.9,8.1,54,0.00,,---,0.00,VWS V12.07,2013-12-01 15:20:00,
2013-12-01 08:25:00,46.1,29.9,26.07,NNW,338,4.0,6.3,53,0.00,,---,0.00,VWS V12.07,2013-12-01 15:25:00,
2013-12-01 08:34:00,46.5,29.3,26.07,NNW,339,5.8,8.3,51,0.00,,---,0.00,VWS V12.07,2013-12-01 15:34:00,
2013-12-01 08:35:00,46.5,28.8,26.07,NNW,339,3.6,8.3,50,0.00,,---,0.00,VWS V12.07,2013-12-01 15:35:00,
2013-12-01 08:40:00,46.6,28.5,26.07,NNW,339,5.4,5.4,49,0.00,,---,0.00,VWS V12.07,2013-12-01 15:40:00,
2013-12-01 08:49:00,47.0,28.3,26.07,NNW,339,3.6,7.6,48,0.00,,---,0.00,VWS V12.07,2013-12-01 15:49:00,
2013-12-01 08:50:00,47.0,27.8,26.07,NNW,339,3.6,7.6,47,0.00,,---,0.00,VWS V12.07,2013-12-01 15:50:00,
2013-12-01 08:55:00,47.2,26.9,26.07,NNW,340,4.9,7.6,45,0.00,,---,0.00,VWS V12.07,2013-12-01 15:55:00,
2013-12-01 09:04:00,47.7,25.8,26.07,NNW,343,4.0,6.3,42,0.00,,---,0.00,VWS V12.07,2013-12-01 16:04:00,
2013-12-01 09:10:00,48.1,24.9,26.07,NNW,346,6.3,10.1,40,0.00,,---,0.00,VWS V12.07,2013-12-01 16:10:00,
2013-12-01 09:19:00,48.4,24.6,26.07,North,350,5.8,10.1,39,0.00,,---,0.00,VWS V12.07,2013-12-01 16:19:00,
2013-12-01 09:20:00,48.4,24.6,26.07,North,350,5.4,7.2,39,0.00,,---,0.00,VWS V12.07,2013-12-01 16:20:00,
2013-12-01 09:25:00,49.0,24.5,26.07,North,350,3.6,7.2,38,0.00,,---,0.00,VWS V12.07,2013-12-01 16:25:00,
2013-12-01 09:34:00,49.5,24.3,26.07,North,353,5.8,8.7,37,0.00,,---,0.00,VWS V12.07,2013-12-01 16:34:00,
2013-12-01 09:35:00,49.5,24.3,26.07,North,353,6.3,8.7,37,0.00,,---,0.00,VWS V12.07,2013-12-01 16:35:00,
2013-12-01 09:40:00,49.9,24.7,26.07,North,349,9.6,11.0,37,0.00,,---,0.00,VWS V12.07,2013-12-01 16:40:00,
2013-12-01 09:49:00,50.6,24.6,26.07,North,353,5.4,8.7,36,0.00,,---,0.00,VWS V12.07,2013-12-01 16:49:00,
2013-12-01 09:50:00,50.4,24.5,26.07,North,353,5.8,8.7,36,0.00,,---,0.00,VWS V12.07,2013-12-01 16:50:00,
2013-12-01 09:55:00,50.8,24.8,26.07,North,349,8.1,9.6,36,0.00,,---,0.00,VWS V12.07,2013-12-01 16:55:00,
2013-12-01 10:03:00,51.7,25.6,26.07,NNW,329,11.4,12.8,36,0.00,,---,0.00,VWS V12.07,2013-12-01 17:03:00,
2013-12-01 10:10:00,52.0,25.2,26.07,NW,326,2.2,12.8,35,0.00,,---,0.00,VWS V12.07,2013-12-01 17:10:00,
2013-12-01 10:18:00,53.7,26.7,26.07,NNW,328,6.3,12.8,35,0.00,,---,0.00,VWS V12.07,2013-12-01 17:18:00,
2013-12-01 10:25:00,54.4,24.4,26.07,NNW,334,5.4,8.7,31,0.00,,---,0.00,VWS V12.07,2013-12-01 17:25:00,
2013-12-01 10:33:00,55.1,23.4,26.07,NNW,329,6.3,10.5,29,0.00,,---,0.00,VWS V12.07,2013-12-01 17:33:00,
2013-12-01 10:40:00,55.1,23.4,26.07,NNW,330,3.6,11.0,29,0.00,,---,0.00,VWS V12.07,2013-12-01 17:40:00,
2013-12-01 10:49:00,55.3,23.6,26.07,NNW,341,6.3,11.4,29,0.00,,---,0.00,VWS V12.07,2013-12-01 17:49:00,
2013-12-01 10:55:00,55.8,24.1,26.07,NNW,336,4.9,11.4,29,0.00,,---,0.00,VWS V12.07,2013-12-01 17:55:00,
2013-12-01 11:11:00,55.8,23.2,26.07,NNW,328,5.8,12.8,28,0.00,,---,0.00,VWS V12.07,2013-12-01 18:11:00,
2013-12-01 11:18:00,55.8,23.2,26.05,NNW,332,4.0,12.8,28,0.00,,---,0.00,VWS V12.07,2013-12-01 18:18:00,
2013-12-01 11:25:00,55.8,23.2,26.05,NNW,330,8.1,11.0,28,0.00,,---,0.00,VWS V12.07,2013-12-01 18:25:00,
2013-12-01 11:33:00,55.8,23.2,26.05,NW,325,3.1,11.0,28,0.00,,---,0.00,VWS V12.07,2013-12-01 18:33:00,
2013-12-01 11:35:00,55.8,23.2,26.05,NNW,327,6.3,11.0,28,0.00,,---,0.00,VWS V12.07,2013-12-01 18:35:00,
2013-12-01 11:40:00,56.2,23.5,26.05,NNW,333,5.8,6.3,28,0.00,,---,0.00,VWS V12.07,2013-12-01 18:40:00,
2013-12-01 11:48:00,56.2,22.7,26.05,NNW,337,7.6,8.3,27,0.00,,---,0.00,VWS V12.07,2013-12-01 18:48:00,
2013-12-01 11:50:00,56.2,22.7,26.05,NNW,332,5.8,9.2,27,0.00,,---,0.00,VWS V12.07,2013-12-01 18:50:00,
2013-12-01 11:55:00,56.4,22.8,26.05,NW,326,5.4,9.6,27,0.00,,---,0.00,VWS V12.07,2013-12-01 18:55:00,
2013-12-01 12:04:00,56.5,23.8,26.05,NNW,327,4.0,8.3,28,0.00,,---,0.00,VWS V12.07,2013-12-01 19:04:00,
2013-12-01 12:05:00,56.5,23.8,26.05,NNW,327,4.5,8.3,28,0.00,,---,0.00,VWS V12.07,2013-12-01 19:05:00,
2013-12-01 12:10:00,56.4,22.8,26.05,NNW,328,3.1,8.3,27,0.00,,---,0.00,VWS V12.07,2013-12-01 19:10:00,
2013-12-01 12:18:00,56.5,23.0,26.05,NW,325,3.6,8.7,27,0.00,,---,0.00,VWS V12.07,2013-12-01 19:18:00,
2013-12-01 12:20:00,56.5,23.0,26.05,NW,325,5.8,8.7,27,0.00,,---,0.00,VWS V12.07,2013-12-01 19:20:00,
2013-12-01 12:25:00,56.7,23.1,26.05,NW,326,4.9,7.2,27,0.00,,---,0.00,VWS V12.07,2013-12-01 19:25:00,
2013-12-01 12:33:00,57.3,22.7,26.02,NW,324,4.9,7.2,26,0.00,,---,0.00,VWS V12.07,2013-12-01 19:33:00,
2013-12-01 12:40:00,58.0,23.3,26.02,NW,324,2.7,4.0,26,0.00,,---,0.00,VWS V12.07,2013-12-01 19:40:00,
2013-12-01 12:49:00,59.6,24.7,26.02,NW,324,0.0,5.8,26,0.00,,---,0.00,VWS V12.07,2013-12-01 19:49:00,
2013-12-01 12:50:00,59.6,24.7,26.02,NW,324,0.0,5.8,26,0.00,,---,0.00,VWS V12.07,2013-12-01 19:50:00,
2013-12-01 12:55:00,60.0,24.1,26.02,NW,324,3.1,5.8,25,0.00,,---,0.00,VWS V12.07,2013-12-01 19:55:00,
2013-12-01 13:04:00,59.8,22.9,26.02,NW,324,0.0,0.0,24,0.00,,---,0.00,VWS V12.07,2013-12-01 20:04:00,
2013-12-01 13:05:00,59.8,22.9,26.02,NW,324,0.0,0.0,24,0.00,,---,0.00,VWS V12.07,2013-12-01 20:05:00,
2013-12-01 13:10:00,59.6,22.8,26.02,NW,324,0.0,2.2,24,0.00,,---,0.00,VWS V12.07,2013-12-01 20:10:00,
2013-12-01 13:19:00,59.1,23.3,26.02,NW,324,0.0,2.2,25,0.00,,---,0.00,VWS V12.07,2013-12-01 20:19:00,
2013-12-01 13:25:00,59.1,23.3,26.02,NW,324,0.0,0.0,25,0.00,,---,0.00,VWS V12.07,2013-12-01 20:25:00,
2013-12-01 13:34:00,59.2,23.5,26.02,NW,324,0.0,0.0,25,0.00,,---,0.00,VWS V12.07,2013-12-01 20:34:00,
2013-12-01 13:35:00,59.2,23.5,26.02,NW,324,0.0,0.0,25,0.00,,---,0.00,VWS V12.07,2013-12-01 20:35:00,
2013-12-01 13:40:00,59.4,23.6,26.02,NW,324,0.0,0.0,25,0.00,,---,0.00,VWS V12.07,2013-12-01 20:40:00,
2013-12-01 13:49:00,59.6,22.8,26.02,NW,324,2.2,3.6,24,0.00,,---,0.00,VWS V12.07,2013-12-01 20:49:00,
2013-12-01 13:50:00,59.6,22.8,26.02,NW,324,2.2,3.6,24,0.00,,---,0.00,VWS V12.07,2013-12-01 20:50:00,
2013-12-01 13:55:00,59.6,22.8,26.02,NW,324,0.0,3.6,24,0.00,,---,0.00,VWS V12.07,2013-12-01 20:55:00,
2013-12-01 14:04:00,60.0,23.1,25.99,NW,324,0.0,2.2,24,0.00,,---,0.00,VWS V12.07,2013-12-01 21:04:00,
2013-12-01 14:10:00,60.0,23.1,25.99,NW,324,0.0,2.2,24,0.00,,---,0.00,VWS V12.07,2013-12-01 21:10:00,
2013-12-01 14:18:00,60.5,23.5,25.99,NW,324,0.0,2.2,24,0.00,,---,0.00,VWS V12.07,2013-12-01 21:18:00,
2013-12-01 14:20:00,60.7,23.7,25.99,NW,324,0.0,0.0,24,0.00,,---,0.00,VWS V12.07,2013-12-01 21:20:00,
2013-12-01 14:25:00,60.5,23.5,25.99,NW,324,0.0,0.0,24,0.00,,---,0.00,VWS V12.07,2013-12-01 21:25:00,
2013-12-01 14:35:00,60.3,23.4,25.99,NW,324,0.0,0.0,24,0.00,,---,0.00,VWS V12.07,2013-12-01 21:35:00,
2013-12-01 14:48:00,61.4,23.3,25.99,NW,324,0.0,0.0,23,0.00,,---,0.00,VWS V12.07,2013-12-01 21:48:00,
2013-12-01 14:50:00,61.6,23.5,25.99,NW,324,0.0,0.0,23,0.00,,---,0.00,VWS V12.07,2013-12-01 21:50:00,
2013-12-01 14:55:00,61.8,23.6,25.99,NW,324,0.0,0.0,23,0.00,,---,0.00,VWS V12.07,2013-12-01 21:55:00,
2013-12-01 15:04:00,61.6,23.5,25.99,NW,324,0.0,0.0,23,0.00,,---,0.00,VWS V12.07,2013-12-01 22:04:00,
2013-12-01 15:05:00,61.8,23.6,25.99,NW,324,0.0,0.0,23,0.00,,---,0.00,VWS V12.07,2013-12-01 22:05:00,
2013-12-01 15:10:00,61.9,23.8,25.99,NW,324,0.0,4.0,23,0.00,,---,0.00,VWS V12.07,2013-12-01 22:10:00,
2013-12-01 15:19:00,61.9,20.5,25.99,NW,324,0.0,4.0,20,0.00,,---,0.00,VWS V12.07,2013-12-01 22:19:00,
2013-12-01 15:20:00,61.8,20.3,25.99,NW,324,0.0,4.0,20,0.00,,---,0.00,VWS V12.07,2013-12-01 22:20:00,
2013-12-01 15:25:00,61.2,23.1,25.99,NW,324,0.0,0.0,23,0.00,,---,0.00,VWS V12.07,2013-12-01 22:25:00,
2013-12-01 15:34:00,60.7,22.7,25.99,NW,324,0.0,0.0,23,0.00,,---,0.00,VWS V12.07,2013-12-01 22:34:00,
2013-12-01 15:35:00,60.5,22.5,25.99,NW,324,0.0,0.0,23,0.00,,---,0.00,VWS V12.07,2013-12-01 22:35:00,
2013-12-01 15:40:00,60.3,22.4,25.99,NW,324,0.0,0.0,23,0.00,,---,0.00,VWS V12.07,2013-12-01 22:40:00,
2013-12-01 15:48:00,60.1,22.2,25.99,NW,324,0.0,0.0,23,0.00,,---,0.00,VWS V12.07,2013-12-01 22:48:00,
2013-12-01 15:50:00,60.1,22.2,25.99,NW,324,0.0,0.0,23,0.00,,---,0.00,VWS V12.07,2013-12-01 22:50:00,
2013-12-01 16:04:00,59.2,22.5,25.99,NW,324,0.0,0.0,24,0.00,,---,0.00,VWS V12.07,2013-12-01 23:04:00,
2013-12-01 16:05:00,59.2,22.5,25.99,NW,324,0.0,0.0,24,0.00,,---,0.00,VWS V12.07,2013-12-01 23:05:00,
2013-12-01 16:10:00,58.9,22.2,25.99,NW,324,0.0,0.0,24,0.00,,---,0.00,VWS V12.07,2013-12-01 23:10:00,
2013-12-01 16:19:00,58.5,21.9,25.99,NW,324,0.0,0.0,24,0.00,,---,0.00,VWS V12.07,2013-12-01 23:19:00,
2013-12-01 16:20:00,58.5,21.9,25.99,NW,324,0.0,0.0,24,0.00,,---,0.00,VWS V12.07,2013-12-01 23:20:00,
2013-12-01 16:25:00,58.3,21.7,25.99,NW,324,0.0,0.0,24,0.00,,---,0.00,VWS V12.07,2013-12-01 23:25:00,
2013-12-01 16:34:00,58.0,22.4,25.99,NW,324,0.0,0.0,25,0.00,,---,0.00,VWS V12.07,2013-12-01 23:34:00,
2013-12-01 16:35:00,58.0,22.4,25.99,NW,324,0.0,0.0,25,0.00,,---,0.00,VWS V12.07,2013-12-01 23:35:00,
2013-12-01 16:40:00,57.6,22.1,25.99,NW,324,0.0,0.0,25,0.00,,---,0.00,VWS V12.07,2013-12-01 23:40:00,
2013-12-01 16:49:00,56.9,21.5,25.99,NW,324,0.0,0.0,25,0.00,,---,0.00,VWS V12.07,2013-12-01 23:49:00,
2013-12-01 16:55:00,56.5,21.2,25.99,NW,324,0.0,0.0,25,0.00,,---,0.00,VWS V12.07,2013-12-01 23:55:00,
2013-12-01 17:01:00,55.8,21.5,25.99,NW,324,0.0,0.0,26,0.00,,---,0.00,VWS V12.07,2013-12-02 00:01:00,
2013-12-01 17:05:00,55.5,21.2,25.99,NW,324,0.0,0.0,26,0.00,,---,0.00,VWS V12.07,2013-12-02 00:05:00,
2013-12-01 17:10:00,55.1,20.9,25.99,NW,324,0.0,0.0,26,0.00,,---,0.00,VWS V12.07,2013-12-02 00:10:00,
2013-12-01 17:19:00,54.4,21.1,25.99,NW,324,0.0,0.0,27,0.00,,---,0.00,VWS V12.07,2013-12-02 00:19:00,
2013-12-01 17:20:00,54.2,21.0,25.99,NW,324,0.0,0.0,27,0.00,,---,0.00,VWS V12.07,2013-12-02 00:20:00,
2013-12-01 17:25:00,53.8,20.7,25.99,NW,324,0.0,0.0,27,0.00,,---,0.00,VWS V12.07,2013-12-02 00:25:00,
2013-12-01 17:34:00,53.3,21.0,25.99,NW,324,0.0,0.0,28,0.00,,---,0.00,VWS V12.07,2013-12-02 00:34:00,
2013-12-01 17:40:00,52.8,20.6,25.99,NW,324,0.0,0.0,28,0.00,,---,0.00,VWS V12.07,2013-12-02 00:40:00,
2013-12-01 17:49:00,52.2,21.7,25.99,NW,324,0.0,0.0,30,0.00,,---,0.00,VWS V12.07,2013-12-02 00:49:00,
2013-12-01 17:50:00,52.0,21.6,25.99,NW,324,0.0,0.0,30,0.00,,---,0.00,VWS V12.07,2013-12-02 00:50:00,
2013-12-01 17:55:00,51.9,21.4,25.99,NW,324,0.0,0.0,30,0.00,,---,0.00,VWS V12.07,2013-12-02 00:55:00,
2013-12-01 18:04:00,51.5,24.1,25.99,NW,324,0.0,0.0,34,0.00,,---,0.00,VWS V12.07,2013-12-02 01:04:00,
2013-12-01 18:10:00,50.6,24.6,25.99,NW,324,0.0,0.0,36,0.00,,---,0.00,VWS V12.07,2013-12-02 01:10:00,
2013-12-01 18:18:00,51.1,25.8,25.99,NW,324,0.0,0.0,37,0.00,,---,0.00,VWS V12.07,2013-12-02 01:18:00,
2013-12-01 18:20:00,51.3,26.0,25.99,NW,324,0.0,0.0,37,0.00,,---,0.00,VWS V12.07,2013-12-02 01:20:00,
2013-12-01 18:25:00,51.1,25.1,25.99,NW,324,0.0,0.0,36,0.00,,---,0.00,VWS V12.07,2013-12-02 01:25:00,
2013-12-01 18:33:00,49.9,24.0,26.02,NW,324,0.0,0.0,36,0.00,,---,0.00,VWS V12.07,2013-12-02 01:33:00,
2013-12-01 18:35:00,49.7,23.9,26.02,NW,324,0.0,0.0,36,0.00,,---,0.00,VWS V12.07,2013-12-02 01:35:00,
2013-12-01 18:40:00,49.5,24.3,26.02,NW,324,0.0,0.0,37,0.00,,---,0.00,VWS V12.07,2013-12-02 01:40:00,
2013-12-01 18:48:00,49.2,24.0,25.99,NW,324,0.0,0.0,37,0.00,,---,0.00,VWS V12.07,2013-12-02 01:48:00,
2013-12-01 18:50:00,49.2,24.0,25.99,NW,324,0.0,0.0,37,0.00,,---,0.00,VWS V12.07,2013-12-02 01:50:00,
2013-12-01 18:55:00,49.2,24.0,25.99,NW,324,0.0,0.0,37,0.00,,---,0.00,VWS V12.07,2013-12-02 01:55:00,
2013-12-01 19:03:00,48.6,24.2,26.02,NW,324,0.0,0.0,38,0.00,,---,0.00,VWS V12.07,2013-12-02 02:03:00,
2013-12-01 19:05:00,48.6,24.2,26.02,NW,324,0.0,0.0,38,0.00,,---,0.00,VWS V12.07,2013-12-02 02:05:00,
2013-12-01 19:10:00,48.4,24.0,26.02,NW,324,0.0,0.0,38,0.00,,---,0.00,VWS V12.07,2013-12-02 02:10:00,
2013-12-01 19:18:00,48.1,24.3,26.02,NW,324,0.0,0.0,39,0.00,,---,0.00,VWS V12.07,2013-12-02 02:18:00,
2013-12-01 19:20:00,48.1,24.9,26.02,NW,324,0.0,0.0,40,0.00,,---,0.00,VWS V12.07,2013-12-02 02:20:00,
2013-12-01 19:25:00,47.5,24.4,26.02,NW,324,0.0,0.0,40,0.00,,---,0.00,VWS V12.07,2013-12-02 02:25:00,
2013-12-01 19:34:00,48.3,26.3,26.02,NW,324,0.0,0.0,42,0.00,,---,0.00,VWS V12.07,2013-12-02 02:34:00,
2013-12-01 19:35:00,48.3,26.3,26.02,NW,324,0.0,0.0,42,0.00,,---,0.00,VWS V12.07,2013-12-02 02:35:00,
2013-12-01 19:40:00,48.1,25.5,26.02,NW,324,0.0,0.0,41,0.00,,---,0.00,VWS V12.07,2013-12-02 02:40:00,
2013-12-01 19:49:00,47.9,25.9,26.02,NW,324,0.0,4.0,42,0.00,,---,0.00,VWS V12.07,2013-12-02 02:49:00,
2013-12-01 19:50:00,47.9,25.9,26.02,NW,324,0.0,4.0,42,0.00,,---,0.00,VWS V12.07,2013-12-02 02:50:00,
2013-12-01 19:55:00,47.7,25.2,26.02,NW,324,0.0,4.0,41,0.00,,---,0.00,VWS V12.07,2013-12-02 02:55:00,
2013-12-01 20:04:00,47.5,25.6,26.02,NW,324,0.0,0.0,42,0.00,,---,0.00,VWS V12.07,2013-12-02 03:04:00,
2013-12-01 20:10:00,47.4,25.4,26.02,NW,324,0.0,0.0,42,0.00,,---,0.00,VWS V12.07,2013-12-02 03:10:00,
2013-12-01 20:19:00,46.6,25.9,26.02,NW,324,0.0,3.6,44,0.00,,---,0.00,VWS V12.07,2013-12-02 03:19:00,
2013-12-01 20:20:00,46.6,25.9,26.02,NW,324,0.0,3.6,44,0.00,,---,0.00,VWS V12.07,2013-12-02 03:20:00,
2013-12-01 20:25:00,46.5,25.7,26.02,NW,324,0.0,0.0,44,0.00,,---,0.00,VWS V12.07,2013-12-02 03:25:00,
2013-12-01 20:35:00,46.6,25.9,26.02,NW,324,0.0,0.0,44,0.00,,---,0.00,VWS V12.07,2013-12-02 03:35:00,
2013-12-01 20:40:00,46.8,26.1,26.02,NW,324,0.0,0.0,44,0.00,,---,0.00,VWS V12.07,2013-12-02 03:40:00,
2013-12-01 20:49:00,46.8,26.1,26.02,NW,324,0.0,0.0,44,0.00,,---,0.00,VWS V12.07,2013-12-02 03:49:00,
2013-12-01 20:55:00,46.8,26.1,26.02,NW,324,0.0,0.0,44,0.00,,---,0.00,VWS V12.07,2013-12-02 03:55:00,
2013-12-01 21:04:00,45.9,24.7,26.02,NW,324,0.0,0.0,43,0.00,,---,0.00,VWS V12.07,2013-12-02 04:04:00,
2013-12-01 21:05:00,45.9,24.7,26.02,NW,324,0.0,0.0,43,0.00,,---,0.00,VWS V12.07,2013-12-02 04:05:00,
2013-12-01 21:10:00,45.4,24.2,26.02,NW,324,0.0,0.0,43,0.00,,---,0.00,VWS V12.07,2013-12-02 04:10:00,
2013-12-01 21:18:00,44.7,25.2,26.02,NW,324,0.0,0.0,46,0.00,,---,0.00,VWS V12.07,2013-12-02 04:18:00,
2013-12-01 21:20:00,44.5,25.0,26.02,NW,324,0.0,0.0,46,0.00,,---,0.00,VWS V12.07,2013-12-02 04:20:00,
2013-12-01 21:25:00,44.3,24.8,26.02,NW,324,0.0,0.0,46,0.00,,---,0.00,VWS V12.07,2013-12-02 04:25:00,
2013-12-01 21:33:00,44.3,25.9,26.02,NW,324,0.0,0.0,48,0.00,,---,0.00,VWS V12.07,2013-12-02 04:33:00,
2013-12-01 21:35:00,44.1,25.7,26.02,NW,324,0.0,0.0,48,0.00,,---,0.00,VWS V12.07,2013-12-02 04:35:00,
2013-12-01 21:40:00,43.8,25.4,26.02,NW,324,0.0,0.0,48,0.00,,---,0.00,VWS V12.07,2013-12-02 04:40:00,
2013-12-01 21:48:00,42.9,24.5,26.02,NW,324,0.0,0.0,48,0.00,,---,0.00,VWS V12.07,2013-12-02 04:48:00,
2013-12-01 21:55:00,42.7,24.4,26.02,NW,324,0.0,0.0,48,0.00,,---,0.00,VWS V12.07,2013-12-02 04:55:00,
2013-12-01 22:05:00,42.1,23.9,26.02,NW,324,0.0,0.0,48,0.00,,---,0.00,VWS V12.07,2013-12-02 05:05:00,
2013-12-01 22:10:00,42.1,24.4,26.02,NW,324,0.0,0.0,49,0.00,,---,0.00,VWS V12.07,2013-12-02 05:10:00,
2013-12-01 22:18:00,41.8,23.5,25.99,NW,324,0.0,0.0,48,0.00,,---,0.00,VWS V12.07,2013-12-02 05:18:00,
2013-12-01 22:20:00,41.6,23.4,25.99,NW,324,0.0,0.0,48,0.00,,---,0.00,VWS V12.07,2013-12-02 05:20:00,
2013-12-01 22:25:00,41.1,23.4,25.99,NW,324,0.0,0.0,49,0.00,,---,0.00,VWS V12.07,2013-12-02 05:25:00,
2013-12-01 22:33:00,41.4,24.7,25.99,NW,324,0.0,0.0,51,0.00,,---,0.00,VWS V12.07,2013-12-02 05:33:00,
2013-12-01 22:35:00,41.6,24.8,25.99,NW,324,0.0,0.0,51,0.00,,---,0.00,VWS V12.07,2013-12-02 05:35:00,
2013-12-01 22:40:00,41.2,24.5,25.99,NW,324,0.0,0.0,51,0.00,,---,0.00,VWS V12.07,2013-12-02 05:40:00,
2013-12-01 22:48:00,41.2,24.5,25.99,NW,324,0.0,0.0,51,0.00,,---,0.00,VWS V12.07,2013-12-02 05:48:00,
2013-12-01 22:50:00,41.4,24.7,25.99,NW,324,3.6,3.6,51,0.00,,---,0.00,VWS V12.07,2013-12-02 05:50:00,
2013-12-01 22:55:00,41.8,25.0,25.99,NW,324,0.0,3.6,51,0.00,,---,0.00,VWS V12.07,2013-12-02 05:55:00,
2013-12-01 23:03:00,42.7,24.9,26.02,NW,324,0.0,4.0,49,0.00,,---,0.00,VWS V12.07,2013-12-02 06:03:00,
2013-12-01 23:05:00,42.7,24.9,26.02,NW,324,0.0,4.0,49,0.00,,---,0.00,VWS V12.07,2013-12-02 06:05:00,
2013-12-01 23:10:00,42.5,24.2,26.02,NW,324,0.0,4.0,48,0.00,,---,0.00,VWS V12.07,2013-12-02 06:10:00,
2013-12-01 23:19:00,41.6,23.4,25.99,NW,324,0.0,4.0,48,0.00,,---,0.00,VWS V12.07,2013-12-02 06:19:00,
2013-12-01 23:20:00,41.4,23.7,25.99,NW,324,0.0,0.0,49,0.00,,---,0.00,VWS V12.07,2013-12-02 06:20:00,
2013-12-01 23:25:00,41.1,23.9,25.99,NW,324,0.0,2.2,50,0.00,,---,0.00,VWS V12.07,2013-12-02 06:25:00,
2013-12-01 23:33:00,40.7,24.5,25.99,NW,324,0.0,3.6,52,0.00,,---,0.00,VWS V12.07,2013-12-02 06:33:00,
2013-12-01 23:35:00,40.7,24.5,25.99,NW,324,0.0,3.6,52,0.00,,---,0.00,VWS V12.07,2013-12-02 06:35:00,
2013-12-01 23:40:00,40.5,23.8,25.99,NW,324,2.7,4.9,51,0.00,,---,0.00,VWS V12.07,2013-12-02 06:40:00,
2013-12-01 23:48:00,40.5,23.8,25.99,NW,324,0.0,2.7,51,0.00,,---,0.00,VWS V12.07,2013-12-02 06:48:00,
2013-12-01 23:50:00,40.5,23.8,25.99,NW,324,0.0,2.7,51,0.00,,---,0.00,VWS V12.07,2013-12-02 06:50:00,
2013-12-01 23:55:00,40.7,24.0,25.99,NW,324,0.0,4.0,51,0.00,,---,0.00,VWS V12.07,2013-12-02 06:55:00,